Etusivu
METAR-TAF:

METAR-TAF

Lentoasemat :

Kosrae, Mikronesia

Leveyspiiri: 05-21N, Pituuspiiri: 162-57E, korkeus merenpinnasta: 3 m

Tämänhetkinen sää

Tämä raportti tehtiin 55 minuuttia sitten, kello 00.50 UTC
Tuuli 9 kn koillisesta
Lämpötila 31°C
Kosteus 63%
Ilmanpaine 1010 hPa
Näkyvyys: 16.1 km
Hajanaisia pilviä 2200 ft:n korkeudessa
Hajonneita pilviä 13000 ft:n korkeudessa
Hajonneita pilviä 30000 ft:n korkeudessa

METAR: PTSA 230050Z 04009KT 10SM SCT022 BKN130 BKN300 31/23 A2983

Aika: 12:45 (01:45 UTC)

Sääennuste

Tämä raportti tehtiin 2 tuntia ja 8 minuuttia sitten, kello 23.37 UTC
Ennuste voimassa 23. päivästä klo 00 UTC - 23. päivään klo 24 UTC
Tuuli 6 kn idästä/koillisesta
Näkyvyys: 10 km
Muutamia pilviä 1800 ft:n korkeudessa
Hajanaisia pilviä 14000 ft:n korkeudessa
sadekuuroja näköpiirissä

TAF: PTSA 222337Z 2300/2324 06006KT P6SM VCSH FEW018 SCT140

Säähavainnot ja -ennusteet yli 4000 lentoasemalta (METAR- ja TAF-raportit).

Käytössä olevat sääasemat on merkitty karttaan keltaisilla ja punaisilla pisteillä.

Aseta hiiri pisteen päälle nähdäksesi sääaseman nimen.

Klikkaa sitten nähdäksesi säähavainnot ja -ennusteet.

Kartan vaihtaminen: klikkaa mustalla rastilla varustettuja vihreitä pisteitä, niin voit zoomata sisään; viivalla varustettua vihreää pistettä, niin voit zoomata ulos tai vihreitä nuolia, niin pääset viereisille kartoille.


METAR-TAF: